Flight Track Log - Related Links

Times and Time Zones

All times are in EDT time to prevent confusion due to time zone crossing. See the LNE1541 flight status page for this flight to view local times or setup timezone preferences in your user account.

Time Position Orientation Groundspeed Altitude Reporting Facility
EDT Latitude Longitude Course Direction KTS MPH feet Rate Location/Type
Fri 07:15:00 AM -0.0010 -78.3670 325° Northwest 271 312 11,200  Level FlightAware ADS-B
Fri 07:15:27 AM 0.0120 -78.3960 294° West 281 323 12,300 2,417 Climbing FlightAware ADS-B
Fri 07:16:12 AM -0.0260 -78.4320 223° Southwest 282 325 14,100 2,093 Climbing FlightAware ADS-B
Fri 07:16:53 AM -0.0850 -78.4350 183° South 312 359 15,300 2,045 Climbing FlightAware ADS-B
Fri 07:17:40 AM -0.1530 -78.4430 187° South 322 371 17,100 2,214 Climbing FlightAware ADS-B
Fri 07:18:17 AM -0.2090 -78.4490 186° South 333 383 18,400 1,500 Climbing FlightAware ADS-B
Fri 07:18:56 AM -0.2740 -78.4570 187° South 367 422 19,000 506 Climbing FlightAware ADS-B
Fri 07:19:40 AM -0.3360 -78.4640 186° South 367 422 19,100 65 Climbing FlightAware ADS-B
Fri 07:20:28 AM -0.4050 -78.4710 186° South 367 422 19,100  Level FlightAware ADS-B
Fri 07:21:16 AM -0.4740 -78.4780 186° South 367 422 19,100 4,174 Level FlightAware ADS-B
Fri 07:21:37 AM -0.5470 -78.5230 212° Southwest 392 451 23,900 5,455 Climbing FlightAware ADS-B
Fri 07:22:22 AM -0.6310 -78.5450 195° South 401 461 25,100 1,465 Climbing FlightAware ADS-B
Fri 07:23:03 AM -0.7080 -78.5650 195° South 413 475 26,000 1,389 Climbing FlightAware ADS-B
Fri 07:23:57 AM -0.8070 -78.5910 195° South 421 484 27,300 1,394 Climbing FlightAware ADS-B
Fri 07:24:42 AM -0.8980 -78.6150 195° South 432 497 28,300 1,121 Climbing FlightAware ADS-B
Fri 07:25:28 AM -0.9830 -78.6380 195° South 418 481 29,000 488 Climbing FlightAware ADS-B
Fri 07:26:08 AM -1.0570 -78.6570 194° South 415 478 29,000  Level FlightAware ADS-B
Fri 07:26:37 AM -1.1130 -78.6670 190° South 418 481 29,000  Level FlightAware ADS-B
Fri 07:27:22 AM -1.2020 -78.6800 188° South 418 481 29,000  Level FlightAware ADS-B
Fri 07:27:56 AM -1.2660 -78.6890 188° South 417 480 29,000  Level FlightAware ADS-B
Fri 07:28:28 AM -1.3300 -78.6980 188° South 416 479 29,000  Level FlightAware ADS-B
Fri 07:29:04 AM -1.3970 -78.7080 188° South 416 479 29,000  Level FlightAware ADS-B
Fri 07:29:35 AM -1.4570 -78.7160 188° South 415 478 29,000 -500 Level FlightAware ADS-B
Fri 07:30:16 AM -1.5340 -78.7270 188° South 415 478 28,400 -1,167 Descending FlightAware ADS-B
Fri 07:30:47 AM -1.5920 -78.7360 189° South 408 470 27,600 -1,701 Descending FlightAware ADS-B
Fri 07:31:23 AM -1.6600 -78.7450 188° South 401 461 26,500 -1,773 Descending FlightAware ADS-B
Fri 07:32:15 AM -1.7520 -78.7590 189° South 394 453 25,000 -1,832 Descending FlightAware ADS-B
Fri 07:32:58 AM -1.8330 -78.7700 188° South 386 444 23,600 -1,816 Descending FlightAware ADS-B
Fri 07:33:31 AM -1.8910 -78.7780 188° South 382 440 22,700 -1,692 Descending FlightAware ADS-B
Fri 07:34:16 AM -1.9670 -78.7890 188° South 375 432 21,400 -1,742 Descending FlightAware ADS-B
Fri 07:35:04 AM -2.0510 -78.8010 188° South 368 423 20,000 -1,537 Descending FlightAware ADS-B
Fri 07:35:38 AM -2.1070 -78.8100 189° South 354 407 19,300 -911 Descending FlightAware ADS-B
Fri 07:36:23 AM -2.1770 -78.8200 188° South 325 374 18,800 -607 Descending FlightAware ADS-B
Fri 07:37:07 AM -2.2410 -78.8290 188° South 298 343 18,400 -495 Descending FlightAware ADS-B
Fri 07:38:00 AM -2.3070 -78.8380 188° South 268 308 18,000 -918 Descending FlightAware ADS-B
Fri 07:38:32 AM -2.3480 -78.8440 188° South 286 329 17,100 -1,037 Descending FlightAware ADS-B
Fri 07:39:21 AM -2.4130 -78.8540 189° South 264 304 16,600 -357 Descending FlightAware ADS-B
Fri 07:39:56 AM -2.4530 -78.8590 187° South 244 281 16,600 -320 Level FlightAware ADS-B
Fri 07:40:36 AM -2.4970 -78.8660 189° South 221 254 16,200 -732 Descending FlightAware ADS-B
Fri 07:41:18 AM -2.5370 -78.8720 189° South 206 237 15,600 -1,034 Descending FlightAware ADS-B
Fri 07:42:03 AM -2.5790 -78.8780 188° South 205 236 14,700 -1,084 Descending FlightAware ADS-B
Fri 07:42:41 AM -2.6130 -78.8840 190° South 199 229 14,100 -649 Descending FlightAware ADS-B
Fri 07:43:17 AM -2.6420 -78.8940 199° South 203 234 13,900 -167 Descending FlightAware ADS-B
Fri 07:43:53 AM -2.6690 -78.9030 198° South 203 234 13,900  Level FlightAware ADS-B
Fri 07:44:41 AM -2.7050 -78.9170 201° Southwest 203 234 13,900  Level FlightAware ADS-B
Fri 07:47:00 AM -2.8895 -78.9844 200° South  Level Estimated
Fri 07:48:00 AM -2.8895 -78.9844 45° Northeast  Level Estimated
Fri 07:49:00 AM -2.8895 -78.9844 45° Northeast  Level Estimated
Fri 07:50:00 AM -2.8895 -78.9844 45° Northeast  Level Estimated
Fri 07:51:00 AM -2.8895 -78.9844 45° Northeast  Level Estimated
Fri 07:52:00 AM -2.8895 -78.9844 45° Northeast  Level Estimated
Fri 07:53:00 AM -2.8895 -78.9844 45° Northeast  Level Estimated
Fri 07:54:00 AM -2.8895 -78.9844 45° Northeast  Level Estimated
Fri 07:55:00 AM -2.8895 -78.9844 45° Northeast  Level Estimated
Fri 07:56:00 AM -2.8895 -78.9844 45° Northeast  Level Estimated
Fri 07:57:00 AM -2.8895 -78.9844 45° Northeast  Level Estimated
Fri 07:58:00 AM -2.8895 -78.9844 45° Northeast  Level Estimated
Fri 07:59:00 AM -2.8895 -78.9844 45° Northeast  Level Estimated
Fri 08:00:00 AM -2.8895 -78.9844 45° Northeast  Level Estimated
Fri 08:01:00 AM -2.8895 -78.9844 45° Northeast  Level Estimated

Login

Don't have an account? Register now (free) for customized features, flight alerts, and more!